sensor_id;sensor_type;location;lat;lon;timestamp;pressure;altitude;pressure_sealevel;temperature;humidity
69971;BME280;57301;50.328;8.542;2023-03-20T00:02:18;98660.44;;;7.96;89.10
69971;BME280;57301;50.328;8.542;2023-03-20T00:04:45;98663.66;;;7.99;88.97
69971;BME280;57301;50.328;8.542;2023-03-20T00:07:12;98655.56;;;8.01;89.54
69971;BME280;57301;50.328;8.542;2023-03-20T00:09:38;98661.00;;;7.99;89.61
69971;BME280;57301;50.328;8.542;2023-03-20T00:12:05;98657.50;;;7.99;90.18
69971;BME280;57301;50.328;8.542;2023-03-20T00:14:32;98660.94;;;7.90;90.81
69971;BME280;57301;50.328;8.542;2023-03-20T00:16:59;98667.03;;;8.01;90.12
69971;BME280;57301;50.328;8.542;2023-03-20T00:19:28;98667.31;;;8.08;88.81
69971;BME280;57301;50.328;8.542;2023-03-20T00:21:56;98670.69;;;8.10;88.44
69971;BME280;57301;50.328;8.542;2023-03-20T00:24:23;98670.72;;;8.20;87.30
69971;BME280;57301;50.328;8.542;2023-03-20T00:26:51;98676.84;;;8.11;87.38
69971;BME280;57301;50.328;8.542;2023-03-20T00:29:21;98672.19;;;8.03;87.47
69971;BME280;57301;50.328;8.542;2023-03-20T00:31:48;98675.13;;;8.00;87.95
69971;BME280;57301;50.328;8.542;2023-03-20T00:34:17;98681.97;;;8.02;87.91
69971;BME280;57301;50.328;8.542;2023-03-20T00:36:44;98675.69;;;8.03;88.01
69971;BME280;57301;50.328;8.542;2023-03-20T00:39:11;98684.06;;;7.99;87.79
69971;BME280;57301;50.328;8.542;2023-03-20T00:44:17;98682.38;;;7.98;87.93
69971;BME280;57301;50.328;8.542;2023-03-20T00:46:46;98680.34;;;7.80;88.60
69971;BME280;57301;50.328;8.542;2023-03-20T00:49:14;98685.72;;;7.69;90.00
69971;BME280;57301;50.328;8.542;2023-03-20T00:51:41;98678.47;;;7.71;91.73
69971;BME280;57301;50.328;8.542;2023-03-20T00:54:12;98683.72;;;7.62;92.33
69971;BME280;57301;50.328;8.542;2023-03-20T00:57:14;98687.78;;;7.66;92.35
69971;BME280;57301;50.328;8.542;2023-03-20T00:59:35;98690.59;;;7.64;92.71
69971;BME280;57301;50.328;8.542;2023-03-20T01:02:03;98694.16;;;7.74;92.96
69971;BME280;57301;50.328;8.542;2023-03-20T01:04:35;98685.38;;;7.84;91.99
69971;BME280;57301;50.328;8.542;2023-03-20T01:07:03;98685.75;;;8.00;91.19
69971;BME280;57301;50.328;8.542;2023-03-20T01:09:31;98691.63;;;8.03;91.02
69971;BME280;57301;50.328;8.542;2023-03-20T01:12:01;98692.66;;;8.12;90.84
69971;BME280;57301;50.328;8.542;2023-03-20T01:14:28;98692.25;;;8.17;90.85
69971;BME280;57301;50.328;8.542;2023-03-20T01:16:54;98691.59;;;8.24;90.21
69971;BME280;57301;50.328;8.542;2023-03-20T01:19:21;98691.03;;;8.30;89.53
69971;BME280;57301;50.328;8.542;2023-03-20T01:21:47;98685.38;;;8.14;91.36
69971;BME280;57301;50.328;8.542;2023-03-20T01:24:14;98682.25;;;7.99;92.88
69971;BME280;57301;50.328;8.542;2023-03-20T01:26:42;98680.88;;;8.05;92.45
69971;BME280;57301;50.328;8.542;2023-03-20T01:31:44;98687.50;;;8.20;92.70
69971;BME280;57301;50.328;8.542;2023-03-20T01:34:10;98685.59;;;8.32;90.98
69971;BME280;57301;50.328;8.542;2023-03-20T01:36:38;98695.72;;;8.38;89.55
69971;BME280;57301;50.328;8.542;2023-03-20T01:39:05;98691.94;;;8.41;89.54
69971;BME280;57301;50.328;8.542;2023-03-20T01:41:31;98689.00;;;8.44;89.04
69971;BME280;57301;50.328;8.542;2023-03-20T01:44:00;98694.91;;;8.47;89.71
69971;BME280;57301;50.328;8.542;2023-03-20T01:46:39;98696.84;;;8.36;93.15
69971;BME280;57301;50.328;8.542;2023-03-20T01:51:55;98698.81;;;8.43;90.84
69971;BME280;57301;50.328;8.542;2023-03-20T01:57:04;98691.97;;;8.20;95.98
69971;BME280;57301;50.328;8.542;2023-03-20T01:59:54;98695.16;;;8.14;95.86
69971;BME280;57301;50.328;8.542;2023-03-20T02:02:25;98694.59;;;8.41;95.84
69971;BME280;57301;50.328;8.542;2023-03-20T02:05:00;98699.28;;;8.68;95.25
69971;BME280;57301;50.328;8.542;2023-03-20T02:07:27;98706.31;;;8.78;94.47
69971;BME280;57301;50.328;8.542;2023-03-20T02:09:56;98696.81;;;8.85;94.55
69971;BME280;57301;50.328;8.542;2023-03-20T02:12:23;98699.34;;;8.97;94.54
69971;BME280;57301;50.328;8.542;2023-03-20T02:14:50;98706.78;;;9.03;93.94
69971;BME280;57301;50.328;8.542;2023-03-20T02:17:18;98701.59;;;9.11;92.84
69971;BME280;57301;50.328;8.542;2023-03-20T02:20:15;98702.56;;;9.29;92.10
69971;BME280;57301;50.328;8.542;2023-03-20T02:22:58;98705.34;;;9.37;91.52
69971;BME280;57301;50.328;8.542;2023-03-20T02:32:02;98702.56;;;9.29;92.14
69971;BME280;57301;50.328;8.542;2023-03-20T02:37:39;98695.00;;;9.44;91.75
69971;BME280;57301;50.328;8.542;2023-03-20T02:43:10;98696.97;;;9.42;91.94
69971;BME280;57301;50.328;8.542;2023-03-20T02:45:57;98697.06;;;9.50;91.00
69971;BME280;57301;50.328;8.542;2023-03-20T02:48:46;98701.72;;;9.58;91.30
69971;BME280;57301;50.328;8.542;2023-03-20T02:51:39;98709.94;;;9.74;89.66
69971;BME280;57301;50.328;8.542;2023-03-20T02:56:45;98712.84;;;9.90;88.81
69971;BME280;57301;50.328;8.542;2023-03-20T02:59:20;98712.59;;;9.84;89.21
69971;BME280;57301;50.328;8.542;2023-03-20T03:02:01;98718.28;;;9.99;89.40
69971;BME280;57301;50.328;8.542;2023-03-20T03:04:33;98711.97;;;10.00;88.70
69971;BME280;57301;50.328;8.542;2023-03-20T03:07:02;98708.94;;;9.75;90.48
69971;BME280;57301;50.328;8.542;2023-03-20T03:09:34;98707.00;;;9.77;90.45
69971;BME280;57301;50.328;8.542;2023-03-20T03:12:11;98709.56;;;9.59;91.31
69971;BME280;57301;50.328;8.542;2023-03-20T03:14:46;98697.53;;;9.46;92.88
69971;BME280;57301;50.328;8.542;2023-03-20T03:17:14;98709.53;;;9.69;92.08
69971;BME280;57301;50.328;8.542;2023-03-20T03:19:46;98709.78;;;9.85;90.93
69971;BME280;57301;50.328;8.542;2023-03-20T03:22:17;98707.00;;;9.77;90.59
69971;BME280;57301;50.328;8.542;2023-03-20T03:24:47;98705.28;;;9.86;90.37
69971;BME280;57301;50.328;8.542;2023-03-20T03:27:18;98713.03;;;9.79;91.50
69971;BME280;57301;50.328;8.542;2023-03-20T03:29:51;98714.28;;;9.75;91.21
69971;BME280;57301;50.328;8.542;2023-03-20T03:32:46;98715.09;;;9.95;90.82
69971;BME280;57301;50.328;8.542;2023-03-20T03:35:17;98711.72;;;9.93;89.66
69971;BME280;57301;50.328;8.542;2023-03-20T03:38:00;98714.84;;;9.88;90.66
69971;BME280;57301;50.328;8.542;2023-03-20T03:40:42;98722.25;;;9.94;89.53
69971;BME280;57301;50.328;8.542;2023-03-20T03:43:16;98716.56;;;10.17;89.63
69971;BME280;57301;50.328;8.542;2023-03-20T03:45:56;98730.34;;;10.03;88.91
69971;BME280;57301;50.328;8.542;2023-03-20T03:48:39;98732.13;;;10.12;89.48
69971;BME280;57301;50.328;8.542;2023-03-20T03:51:12;98736.66;;;10.02;89.65
69971;BME280;57301;50.328;8.542;2023-03-20T03:53:44;98741.66;;;9.58;92.50
69971;BME280;57301;50.328;8.542;2023-03-20T03:56:15;98734.50;;;9.49;93.60
69971;BME280;57301;50.328;8.542;2023-03-20T03:58:51;98735.31;;;9.78;92.50
69971;BME280;57301;50.328;8.542;2023-03-20T04:01:19;98745.44;;;9.46;93.69
69971;BME280;57301;50.328;8.542;2023-03-20T04:03:52;98739.81;;;9.49;94.30
69971;BME280;57301;50.328;8.542;2023-03-20T04:06:20;98733.50;;;9.50;93.98
69971;BME280;57301;50.328;8.542;2023-03-20T04:08:46;98736.91;;;9.52;94.33
69971;BME280;57301;50.328;8.542;2023-03-20T04:11:21;98738.69;;;9.51;94.17
69971;BME280;57301;50.328;8.542;2023-03-20T04:13:50;98740.22;;;9.44;94.36
69971;BME280;57301;50.328;8.542;2023-03-20T04:16:18;98745.84;;;9.22;94.64
69971;BME280;57301;50.328;8.542;2023-03-20T04:18:45;98757.75;;;9.27;95.59
69971;BME280;57301;50.328;8.542;2023-03-20T04:21:12;98753.97;;;9.49;93.82
69971;BME280;57301;50.328;8.542;2023-03-20T04:23:39;98758.72;;;9.55;92.89
69971;BME280;57301;50.328;8.542;2023-03-20T04:26:05;98761.00;;;9.40;93.67
69971;BME280;57301;50.328;8.542;2023-03-20T04:28:33;98762.09;;;9.48;93.37
69971;BME280;57301;50.328;8.542;2023-03-20T04:31:00;98762.22;;;9.17;94.45
69971;BME280;57301;50.328;8.542;2023-03-20T04:33:27;98766.56;;;9.08;96.03
69971;BME280;57301;50.328;8.542;2023-03-20T04:35:54;98780.13;;;9.05;95.12
69971;BME280;57301;50.328;8.542;2023-03-20T04:38:21;98777.03;;;9.00;95.54
69971;BME280;57301;50.328;8.542;2023-03-20T04:40:48;98780.31;;;8.73;96.31
69971;BME280;57301;50.328;8.542;2023-03-20T04:43:15;98780.66;;;8.99;96.13
69971;BME280;57301;50.328;8.542;2023-03-20T04:45:42;98782.78;;;9.05;95.02
69971;BME280;57301;50.328;8.542;2023-03-20T04:48:09;98788.09;;;9.05;94.45
69971;BME280;57301;50.328;8.542;2023-03-20T04:50:35;98781.63;;;8.88;94.88
69971;BME280;57301;50.328;8.542;2023-03-20T04:53:02;98791.91;;;9.03;94.60
69971;BME280;57301;50.328;8.542;2023-03-20T04:55:28;98788.69;;;9.09;94.35
69971;BME280;57301;50.328;8.542;2023-03-20T04:57:55;98791.91;;;9.12;92.92
69971;BME280;57301;50.328;8.542;2023-03-20T05:00:21;98793.16;;;9.18;92.79
69971;BME280;57301;50.328;8.542;2023-03-20T05:02:48;98794.25;;;9.06;92.57
69971;BME280;57301;50.328;8.542;2023-03-20T05:05:15;98781.25;;;9.03;92.46
69971;BME280;57301;50.328;8.542;2023-03-20T05:07:41;98777.13;;;8.79;93.33
69971;BME280;57301;50.328;8.542;2023-03-20T05:10:09;98771.41;;;8.84;94.26
69971;BME280;57301;50.328;8.542;2023-03-20T05:12:36;98766.59;;;8.68;94.19
69971;BME280;57301;50.328;8.542;2023-03-20T05:15:03;98775.56;;;8.77;94.00
69971;BME280;57301;50.328;8.542;2023-03-20T05:17:29;98773.97;;;8.55;94.49
69971;BME280;57301;50.328;8.542;2023-03-20T05:19:56;98770.78;;;8.61;95.00
69971;BME280;57301;50.328;8.542;2023-03-20T05:22:23;98763.78;;;8.70;94.62
69971;BME280;57301;50.328;8.542;2023-03-20T05:24:49;98769.97;;;8.40;96.47
69971;BME280;57301;50.328;8.542;2023-03-20T05:27:16;98765.16;;;8.64;94.94
69971;BME280;57301;50.328;8.542;2023-03-20T05:29:43;98768.91;;;8.52;95.43
69971;BME280;57301;50.328;8.542;2023-03-20T05:32:09;98773.16;;;8.64;94.71
69971;BME280;57301;50.328;8.542;2023-03-20T05:34:38;98766.75;;;8.36;95.09
69971;BME280;57301;50.328;8.542;2023-03-20T05:37:04;98750.72;;;8.47;95.69
69971;BME280;57301;50.328;8.542;2023-03-20T05:39:31;98759.97;;;8.32;95.70
69971;BME280;57301;50.328;8.542;2023-03-20T05:41:57;98766.22;;;8.42;95.85
69971;BME280;57301;50.328;8.542;2023-03-20T05:44:24;98755.59;;;8.42;95.04
69971;BME280;57301;50.328;8.542;2023-03-20T05:46:50;98765.16;;;8.64;94.38
69971;BME280;57301;50.328;8.542;2023-03-20T05:49:17;98766.16;;;8.63;94.23
69971;BME280;57301;50.328;8.542;2023-03-20T05:51:43;98761.44;;;8.36;94.71
69971;BME280;57301;50.328;8.542;2023-03-20T05:54:09;98748.59;;;8.20;96.25
69971;BME280;57301;50.328;8.542;2023-03-20T05:56:37;98765.66;;;8.18;96.28
69971;BME280;57301;50.328;8.542;2023-03-20T05:59:04;98766.66;;;8.47;95.01
69971;BME280;57301;50.328;8.542;2023-03-20T06:01:30;98767.91;;;8.43;93.80
69971;BME280;57301;50.328;8.542;2023-03-20T06:03:57;98768.19;;;8.50;94.18
69971;BME280;57301;50.328;8.542;2023-03-20T06:06:23;98774.09;;;8.53;94.03
69971;BME280;57301;50.328;8.542;2023-03-20T06:08:50;98779.09;;;8.47;94.17
69971;BME280;57301;50.328;8.542;2023-03-20T06:11:16;98797.84;;;8.45;93.57
69971;BME280;57301;50.328;8.542;2023-03-20T06:13:43;98788.97;;;8.35;94.33
69971;BME280;57301;50.328;8.542;2023-03-20T06:16:09;98794.50;;;8.53;93.40
69971;BME280;57301;50.328;8.542;2023-03-20T06:18:36;98781.50;;;8.50;92.73
69971;BME280;57301;50.328;8.542;2023-03-20T06:21:04;98793.19;;;8.68;92.13
69971;BME280;57301;50.328;8.542;2023-03-20T06:23:31;98786.88;;;8.69;90.65
69971;BME280;57301;50.328;8.542;2023-03-20T06:25:57;98788.56;;;8.70;90.28
69971;BME280;57301;50.328;8.542;2023-03-20T06:28:24;98798.22;;;8.41;92.02
69971;BME280;57301;50.328;8.542;2023-03-20T06:30:51;98794.47;;;8.43;91.96
69971;BME280;57301;50.328;8.542;2023-03-20T06:33:19;98802.78;;;8.08;92.48
69971;BME280;57301;50.328;8.542;2023-03-20T06:35:45;98799.47;;;8.37;92.45
69971;BME280;57301;50.328;8.542;2023-03-20T06:38:13;98791.38;;;8.38;92.47
69971;BME280;57301;50.328;8.542;2023-03-20T06:40:42;98789.41;;;8.71;90.45
69971;BME280;57301;50.328;8.542;2023-03-20T06:43:08;98783.97;;;8.72;89.80
69971;BME280;57301;50.328;8.542;2023-03-20T06:45:38;98779.50;;;8.82;88.79
69971;BME280;57301;50.328;8.542;2023-03-20T06:48:08;98773.25;;;8.53;90.11
69971;BME280;57301;50.328;8.542;2023-03-20T06:50:34;98775.81;;;8.64;89.48
69971;BME280;57301;50.328;8.542;2023-03-20T06:53:02;98783.00;;;8.83;88.61
69971;BME280;57301;50.328;8.542;2023-03-20T06:55:29;98781.34;;;8.92;86.92
69971;BME280;57301;50.328;8.542;2023-03-20T06:57:56;98785.19;;;9.08;85.69
69971;BME280;57301;50.328;8.542;2023-03-20T07:00:23;98788.22;;;8.84;87.21
69971;BME280;57301;50.328;8.542;2023-03-20T07:02:49;98785.31;;;9.26;85.55
69971;BME280;57301;50.328;8.542;2023-03-20T07:05:16;98784.56;;;8.95;85.96
69971;BME280;57301;50.328;8.542;2023-03-20T07:07:43;98790.72;;;8.96;86.25
69971;BME280;57301;50.328;8.542;2023-03-20T07:10:10;98801.28;;;9.17;85.23
69971;BME280;57301;50.328;8.542;2023-03-20T07:12:37;98799.06;;;9.31;84.43
69971;BME280;57301;50.328;8.542;2023-03-20T07:15:04;98799.06;;;9.51;82.69
69971;BME280;57301;50.328;8.542;2023-03-20T07:17:32;98799.38;;;9.77;82.03
69971;BME280;57301;50.328;8.542;2023-03-20T07:19:58;98800.63;;;9.63;81.88
69971;BME280;57301;50.328;8.542;2023-03-20T07:22:27;98818.56;;;9.80;81.09
69971;BME280;57301;50.328;8.542;2023-03-20T07:24:53;98818.81;;;9.38;82.63
69971;BME280;57301;50.328;8.542;2023-03-20T07:27:20;98800.19;;;9.38;82.48
69971;BME280;57301;50.328;8.542;2023-03-20T07:29:47;98804.25;;;9.23;82.36
69971;BME280;57301;50.328;8.542;2023-03-20T07:32:14;98817.94;;;9.09;83.97
69971;BME280;57301;50.328;8.542;2023-03-20T07:34:41;98824.72;;;9.42;82.67
69971;BME280;57301;50.328;8.542;2023-03-20T07:37:08;98824.16;;;9.29;82.73
69971;BME280;57301;50.328;8.542;2023-03-20T07:39:35;98819.59;;;9.00;83.87
69971;BME280;57301;50.328;8.542;2023-03-20T07:42:02;98820.44;;;9.01;84.67
69971;BME280;57301;50.328;8.542;2023-03-20T07:44:28;98827.06;;;9.16;84.03
69971;BME280;57301;50.328;8.542;2023-03-20T07:46:55;98825.25;;;9.26;83.37
69971;BME280;57301;50.328;8.542;2023-03-20T07:49:22;98826.09;;;9.36;83.26
69971;BME280;57301;50.328;8.542;2023-03-20T07:51:49;98825.97;;;9.28;82.98
69971;BME280;57301;50.328;8.542;2023-03-20T07:54:16;98822.19;;;9.31;82.23
69971;BME280;57301;50.328;8.542;2023-03-20T07:56:43;98818.16;;;9.65;82.19
69971;BME280;57301;50.328;8.542;2023-03-20T07:59:11;98821.50;;;9.48;82.03
69971;BME280;57301;50.328;8.542;2023-03-20T08:01:37;98829.09;;;9.72;81.44
69971;BME280;57301;50.328;8.542;2023-03-20T08:04:04;98828.53;;;9.59;81.06
69971;BME280;57301;50.328;8.542;2023-03-20T08:06:31;98828.66;;;9.86;79.83
69971;BME280;57301;50.328;8.542;2023-03-20T08:08:58;98824.84;;;9.99;79.36
69971;BME280;57301;50.328;8.542;2023-03-20T08:11:25;98827.22;;;10.21;79.14
69971;BME280;57301;50.328;8.542;2023-03-20T08:13:51;98828.38;;;10.65;77.74
69971;BME280;57301;50.328;8.542;2023-03-20T08:16:18;98824.84;;;10.74;75.69
69971;BME280;57301;50.328;8.542;2023-03-20T08:18:45;98838.19;;;9.89;77.55
69971;BME280;57301;50.328;8.542;2023-03-20T08:21:11;98834.97;;;9.85;78.39
69971;BME280;57301;50.328;8.542;2023-03-20T08:23:38;98841.84;;;9.78;79.15
69971;BME280;57301;50.328;8.542;2023-03-20T08:26:05;98845.19;;;10.09;79.70
69971;BME280;57301;50.328;8.542;2023-03-20T08:28:31;98826.22;;;10.41;78.46
69971;BME280;57301;50.328;8.542;2023-03-20T08:31:13;98832.78;;;10.57;77.43
69971;BME280;57301;50.328;8.542;2023-03-20T08:33:40;98844.50;;;10.73;76.44
69971;BME280;57301;50.328;8.542;2023-03-20T08:36:07;98845.91;;;10.68;75.59
69971;BME280;57301;50.328;8.542;2023-03-20T08:38:34;98838.59;;;9.75;80.19
69971;BME280;57301;50.328;8.542;2023-03-20T08:41:01;98845.97;;;10.48;77.28
69971;BME280;57301;50.328;8.542;2023-03-20T08:43:27;98842.78;;;10.35;75.87
69971;BME280;57301;50.328;8.542;2023-03-20T08:45:54;98846.97;;;10.18;76.09
69971;BME280;57301;50.328;8.542;2023-03-20T08:48:21;98849.69;;;9.89;77.82
69971;BME280;57301;50.328;8.542;2023-03-20T08:50:47;98852.88;;;10.12;77.17
69971;BME280;57301;50.328;8.542;2023-03-20T08:53:14;98852.72;;;10.53;77.84
69971;BME280;57301;50.328;8.542;2023-03-20T08:55:46;98848.84;;;11.12;73.92
69971;BME280;57301;50.328;8.542;2023-03-20T08:58:13;98860.72;;;10.90;74.97
69971;BME280;57301;50.328;8.542;2023-03-20T09:00:39;98856.28;;;11.81;72.48
69971;BME280;57301;50.328;8.542;2023-03-20T09:03:11;98870.75;;;11.61;72.03
69971;BME280;57301;50.328;8.542;2023-03-20T09:05:42;98855.28;;;11.82;71.20
69971;BME280;57301;50.328;8.542;2023-03-20T09:08:09;98844.44;;;12.01;70.40
69971;BME280;57301;50.328;8.542;2023-03-20T09:10:35;98844.16;;;12.30;69.72
69971;BME280;57301;50.328;8.542;2023-03-20T09:13:02;98861.59;;;11.63;72.54
69971;BME280;57301;50.328;8.542;2023-03-20T09:15:49;98856.94;;;12.19;69.64
69971;BME280;57301;50.328;8.542;2023-03-20T09:18:15;98848.09;;;12.44;68.84
69971;BME280;57301;50.328;8.542;2023-03-20T09:20:42;98837.69;;;13.27;66.16
69971;BME280;57301;50.328;8.542;2023-03-20T09:23:08;98832.75;;;12.02;68.12
69971;BME280;57301;50.328;8.542;2023-03-20T09:25:35;98834.09;;;11.71;69.59
69971;BME280;57301;50.328;8.542;2023-03-20T09:28:02;98845.78;;;11.70;69.14
69971;BME280;57301;50.328;8.542;2023-03-20T09:30:29;98838.69;;;12.14;67.87
69971;BME280;57301;50.328;8.542;2023-03-20T09:32:55;98839.34;;;12.60;67.49
69971;BME280;57301;50.328;8.542;2023-03-20T09:35:22;98843.91;;;12.68;66.77
69971;BME280;57301;50.328;8.542;2023-03-20T09:37:48;98843.66;;;13.71;64.96
69971;BME280;57301;50.328;8.542;2023-03-20T09:40:26;98846.47;;;12.77;65.80
69971;BME280;57301;50.328;8.542;2023-03-20T09:48:40;98855.09;;;14.14;60.41
69971;BME280;57301;50.328;8.542;2023-03-20T09:51:20;98855.09;;;14.55;60.58
69971;BME280;57301;50.328;8.542;2023-03-20T09:53:58;98846.84;;;14.48;59.93
69971;BME280;57301;50.328;8.542;2023-03-20T09:56:28;98858.81;;;15.01;58.02
69971;BME280;57301;50.328;8.542;2023-03-20T09:58:57;98846.75;;;14.97;58.84
69971;BME280;57301;50.328;8.542;2023-03-20T10:01:52;98847.31;;;14.76;58.93
69971;BME280;57301;50.328;8.542;2023-03-20T10:04:19;98857.06;;;14.69;57.92
69971;BME280;57301;50.328;8.542;2023-03-20T10:06:47;98857.63;;;13.33;61.67
69971;BME280;57301;50.328;8.542;2023-03-20T10:09:22;98858.38;;;13.67;62.18
69971;BME280;57301;50.328;8.542;2023-03-20T10:20:23;98859.97;;;13.36;59.22
69971;BME280;57301;50.328;8.542;2023-03-20T10:22:57;98853.91;;;13.26;60.51
69971;BME280;57301;50.328;8.542;2023-03-20T10:25:31;98853.00;;;13.17;61.95
69971;BME280;57301;50.328;8.542;2023-03-20T10:28:01;98846.66;;;13.68;59.16
69971;BME280;57301;50.328;8.542;2023-03-20T10:33:56;98843.13;;;15.52;54.45
69971;BME280;57301;50.328;8.542;2023-03-20T10:41:35;98853.69;;;15.93;52.24
69971;BME280;57301;50.328;8.542;2023-03-20T10:44:05;98853.50;;;15.72;53.52
69971;BME280;57301;50.328;8.542;2023-03-20T10:46:41;98838.91;;;16.50;52.84
69971;BME280;57301;50.328;8.542;2023-03-20T10:50:29;98847.28;;;16.55;51.21
69971;BME280;57301;50.328;8.542;2023-03-20T10:52:25;98846.25;;;15.72;52.57
69971;BME280;57301;50.328;8.542;2023-03-20T10:55:00;98838.28;;;14.45;55.77
69971;BME280;57301;50.328;8.542;2023-03-20T10:57:32;98856.09;;;14.13;58.04
69971;BME280;57301;50.328;8.542;2023-03-20T10:59:59;98849.38;;;14.01;58.46
69971;BME280;57301;50.328;8.542;2023-03-20T11:02:30;98841.66;;;14.47;57.41
69971;BME280;57301;50.328;8.542;2023-03-20T11:05:04;98844.19;;;13.83;59.28
69971;BME280;57301;50.328;8.542;2023-03-20T11:07:37;98844.34;;;14.22;58.45
69971;BME280;57301;50.328;8.542;2023-03-20T11:12:49;98843.69;;;14.12;59.13
69971;BME280;57301;50.328;8.542;2023-03-20T11:15:38;98846.94;;;13.41;60.27
69971;BME280;57301;50.328;8.542;2023-03-20T11:18:06;98842.66;;;13.97;60.03
69971;BME280;57301;50.328;8.542;2023-03-20T11:20:55;98846.69;;;13.93;58.37
69971;BME280;57301;50.328;8.542;2023-03-20T11:23:27;98837.28;;;14.30;58.28
69971;BME280;57301;50.328;8.542;2023-03-20T11:32:27;98818.75;;;15.31;53.85
69971;BME280;57301;50.328;8.542;2023-03-20T11:35:09;98826.66;;;15.55;53.24
69971;BME280;57301;50.328;8.542;2023-03-20T11:37:43;98814.34;;;16.15;51.07
69971;BME280;57301;50.328;8.542;2023-03-20T11:40:15;98816.66;;;15.95;51.69
69971;BME280;57301;50.328;8.542;2023-03-20T11:42:56;98813.88;;;15.89;52.56
69971;BME280;57301;50.328;8.542;2023-03-20T11:45:37;98812.25;;;16.02;50.85
69971;BME280;57301;50.328;8.542;2023-03-20T11:48:13;98817.84;;;14.28;53.76
69971;BME280;57301;50.328;8.542;2023-03-20T11:50:45;98821.56;;;14.02;56.25
69971;BME280;57301;50.328;8.542;2023-03-20T11:53:29;98810.03;;;15.52;53.24
69971;BME280;57301;50.328;8.542;2023-03-20T11:56:25;98791.06;;;16.37;49.87
69971;BME280;57301;50.328;8.542;2023-03-20T12:01:36;98794.94;;;16.57;49.42
69971;BME280;57301;50.328;8.542;2023-03-20T12:04:07;98796.88;;;16.11;49.42
69971;BME280;57301;50.328;8.542;2023-03-20T12:06:40;98788.56;;;16.35;47.67
69971;BME280;57301;50.328;8.542;2023-03-20T12:12:01;98783.47;;;15.57;47.70
69971;BME280;57301;50.328;8.542;2023-03-20T12:14:40;98785.19;;;15.81;48.85
69971;BME280;57301;50.328;8.542;2023-03-20T12:17:34;98776.91;;;15.37;49.97
69971;BME280;57301;50.328;8.542;2023-03-20T12:20:25;98778.44;;;15.00;50.11
69971;BME280;57301;50.328;8.542;2023-03-20T12:23:10;98773.81;;;15.71;48.02
69971;BME280;57301;50.328;8.542;2023-03-20T12:25:54;98775.16;;;14.82;50.22
69971;BME280;57301;50.328;8.542;2023-03-20T12:28:39;98774.34;;;15.12;49.52
69971;BME280;57301;50.328;8.542;2023-03-20T12:36:46;98770.75;;;14.25;50.71
69971;BME280;57301;50.328;8.542;2023-03-20T12:39:16;98760.06;;;13.52;50.88
69971;BME280;57301;50.328;8.542;2023-03-20T13:00:46;98722.22;;;14.67;46.22
69971;BME280;57301;50.328;8.542;2023-03-20T13:08:50;98712.47;;;14.97;45.95
69971;BME280;57301;50.328;8.542;2023-03-20T13:11:38;98716.41;;;14.87;46.46
69971;BME280;57301;50.328;8.542;2023-03-20T13:14:14;98721.47;;;14.82;47.30
69971;BME280;57301;50.328;8.542;2023-03-20T13:16:52;98717.56;;;14.45;48.38
69971;BME280;57301;50.328;8.542;2023-03-20T13:19:44;98723.31;;;14.73;47.55
69971;BME280;57301;50.328;8.542;2023-03-20T13:22:22;98719.41;;;14.44;47.32
69971;BME280;57301;50.328;8.542;2023-03-20T13:25:21;98724.91;;;14.59;47.89
69971;BME280;57301;50.328;8.542;2023-03-20T13:30:33;98717.38;;;14.55;47.61
69971;BME280;57301;50.328;8.542;2023-03-20T13:36:15;98713.69;;;14.56;46.93
69971;BME280;57301;50.328;8.542;2023-03-20T13:38:48;98721.41;;;14.42;47.31
69971;BME280;57301;50.328;8.542;2023-03-20T13:41:19;98713.91;;;15.08;45.82
69971;BME280;57301;50.328;8.542;2023-03-20T13:43:58;98716.03;;;14.90;46.38
69971;BME280;57301;50.328;8.542;2023-03-20T13:46:49;98714.84;;;14.61;46.03
69971;BME280;57301;50.328;8.542;2023-03-20T13:49:36;98711.94;;;15.02;46.26
69971;BME280;57301;50.328;8.542;2023-03-20T13:52:08;98718.28;;;14.78;46.60
69971;BME280;57301;50.328;8.542;2023-03-20T13:55:05;98714.56;;;14.79;46.20
69971;BME280;57301;50.328;8.542;2023-03-20T14:03:10;98699.09;;;13.78;48.23
69971;BME280;57301;50.328;8.542;2023-03-20T14:05:39;98710.63;;;13.38;48.81
69971;BME280;57301;50.328;8.542;2023-03-20T14:11:13;98709.97;;;13.60;49.55
69971;BME280;57301;50.328;8.542;2023-03-20T14:13:46;98709.28;;;13.75;49.23
69971;BME280;57301;50.328;8.542;2023-03-20T14:16:17;98701.59;;;13.55;49.68
69971;BME280;57301;50.328;8.542;2023-03-20T14:18:47;98700.09;;;13.36;48.62
69971;BME280;57301;50.328;8.542;2023-03-20T14:21:19;98704.63;;;13.60;49.19
69971;BME280;57301;50.328;8.542;2023-03-20T14:24:09;98705.97;;;13.40;48.17
69971;BME280;57301;50.328;8.542;2023-03-20T14:26:39;98703.78;;;13.27;47.36
69971;BME280;57301;50.328;8.542;2023-03-20T14:31:38;98710.38;;;12.90;48.09
69971;BME280;57301;50.328;8.542;2023-03-20T14:45:26;98711.22;;;12.91;47.60
69971;BME280;57301;50.328;8.542;2023-03-20T14:52:44;98717.06;;;12.95;46.59
69971;BME280;57301;50.328;8.542;2023-03-20T14:55:28;98713.09;;;13.15;46.80
69971;BME280;57301;50.328;8.542;2023-03-20T14:58:00;98721.34;;;13.22;45.85
69971;BME280;57301;50.328;8.542;2023-03-20T15:00:28;98719.72;;;12.44;47.72
69971;BME280;57301;50.328;8.542;2023-03-20T15:03:05;98724.13;;;12.53;48.06
69971;BME280;57301;50.328;8.542;2023-03-20T15:05:38;98726.94;;;12.52;48.12
69971;BME280;57301;50.328;8.542;2023-03-20T15:08:44;98729.88;;;12.75;49.13
69971;BME280;57301;50.328;8.542;2023-03-20T15:11:13;98719.59;;;13.04;51.99
69971;BME280;57301;50.328;8.542;2023-03-20T15:13:40;98725.53;;;12.82;48.84
69971;BME280;57301;50.328;8.542;2023-03-20T15:16:10;98723.00;;;12.30;50.40
69971;BME280;57301;50.328;8.542;2023-03-20T15:18:42;98723.69;;;11.62;52.59
69971;BME280;57301;50.328;8.542;2023-03-20T15:21:20;98721.22;;;12.13;53.36
69971;BME280;57301;50.328;8.542;2023-03-20T15:23:47;98725.28;;;11.73;53.13
69971;BME280;57301;50.328;8.542;2023-03-20T15:26:16;98716.50;;;12.06;52.92
69971;BME280;57301;50.328;8.542;2023-03-20T15:28:44;98715.34;;;11.65;52.84
69971;BME280;57301;50.328;8.542;2023-03-20T15:31:22;98715.63;;;11.80;54.09
69971;BME280;57301;50.328;8.542;2023-03-20T15:33:49;98720.59;;;11.75;54.30
69971;BME280;57301;50.328;8.542;2023-03-20T15:36:18;98715.50;;;11.64;55.75